sensor_id;sensor_type;location;lat;lon;timestamp;P1;durP1;ratioP1;P2;durP2;ratioP2
42912;SDS011;50720;54.324;18.558;2024-02-16T00:01:40;47.40;;;24.33;;
42912;SDS011;50720;54.324;18.558;2024-02-16T00:04:23;38.55;;;21.08;;
42912;SDS011;50720;54.324;18.558;2024-02-16T00:07:07;42.95;;;21.30;;
42912;SDS011;50720;54.324;18.558;2024-02-16T00:09:52;39.58;;;20.55;;
42912;SDS011;50720;54.324;18.558;2024-02-16T00:12:36;36.47;;;20.13;;
42912;SDS011;50720;54.324;18.558;2024-02-16T00:15:21;41.70;;;20.60;;
42912;SDS011;50720;54.324;18.558;2024-02-16T00:18:05;39.20;;;20.10;;
42912;SDS011;50720;54.324;18.558;2024-02-16T00:20:49;37.10;;;20.10;;
42912;SDS011;50720;54.324;18.558;2024-02-16T00:23:33;40.28;;;20.92;;
42912;SDS011;50720;54.324;18.558;2024-02-16T00:26:18;41.40;;;20.88;;
42912;SDS011;50720;54.324;18.558;2024-02-16T00:29:02;39.25;;;22.02;;
42912;SDS011;50720;54.324;18.558;2024-02-16T00:31:46;38.42;;;20.20;;
42912;SDS011;50720;54.324;18.558;2024-02-16T00:34:30;38.45;;;20.83;;
42912;SDS011;50720;54.324;18.558;2024-02-16T00:37:16;36.75;;;19.42;;
42912;SDS011;50720;54.324;18.558;2024-02-16T00:40:00;38.33;;;20.05;;
42912;SDS011;50720;54.324;18.558;2024-02-16T00:42:45;40.08;;;20.55;;
42912;SDS011;50720;54.324;18.558;2024-02-16T00:45:29;38.35;;;20.35;;
42912;SDS011;50720;54.324;18.558;2024-02-16T00:48:12;36.28;;;19.40;;
42912;SDS011;50720;54.324;18.558;2024-02-16T00:50:56;37.22;;;19.77;;
42912;SDS011;50720;54.324;18.558;2024-02-16T00:53:40;35.40;;;19.15;;
42912;SDS011;50720;54.324;18.558;2024-02-16T00:56:23;37.25;;;18.85;;
42912;SDS011;50720;54.324;18.558;2024-02-16T00:59:08;33.50;;;20.08;;
42912;SDS011;50720;54.324;18.558;2024-02-16T01:01:52;38.08;;;20.65;;
42912;SDS011;50720;54.324;18.558;2024-02-16T01:04:35;37.55;;;18.98;;
42912;SDS011;50720;54.324;18.558;2024-02-16T01:07:19;35.10;;;19.90;;
42912;SDS011;50720;54.324;18.558;2024-02-16T01:10:02;41.95;;;21.42;;
42912;SDS011;50720;54.324;18.558;2024-02-16T01:12:46;44.10;;;20.77;;
42912;SDS011;50720;54.324;18.558;2024-02-16T01:15:31;39.92;;;20.73;;
42912;SDS011;50720;54.324;18.558;2024-02-16T01:18:15;43.15;;;21.25;;
42912;SDS011;50720;54.324;18.558;2024-02-16T01:20:58;45.08;;;22.60;;
42912;SDS011;50720;54.324;18.558;2024-02-16T01:23:42;43.10;;;21.75;;
42912;SDS011;50720;54.324;18.558;2024-02-16T01:26:26;50.72;;;24.55;;
42912;SDS011;50720;54.324;18.558;2024-02-16T01:29:10;49.70;;;24.50;;
42912;SDS011;50720;54.324;18.558;2024-02-16T01:31:54;41.80;;;22.63;;
42912;SDS011;50720;54.324;18.558;2024-02-16T01:34:38;51.65;;;25.80;;
42912;SDS011;50720;54.324;18.558;2024-02-16T01:37:21;52.63;;;23.90;;
42912;SDS011;50720;54.324;18.558;2024-02-16T01:40:05;54.17;;;24.67;;
42912;SDS011;50720;54.324;18.558;2024-02-16T01:42:50;48.63;;;24.75;;
42912;SDS011;50720;54.324;18.558;2024-02-16T01:45:34;54.38;;;25.02;;
42912;SDS011;50720;54.324;18.558;2024-02-16T01:48:19;54.53;;;25.60;;
42912;SDS011;50720;54.324;18.558;2024-02-16T01:51:03;57.72;;;26.10;;
42912;SDS011;50720;54.324;18.558;2024-02-16T01:53:47;54.97;;;25.63;;
42912;SDS011;50720;54.324;18.558;2024-02-16T01:56:31;61.20;;;26.27;;
42912;SDS011;50720;54.324;18.558;2024-02-16T01:59:14;58.90;;;26.80;;
42912;SDS011;50720;54.324;18.558;2024-02-16T02:01:58;63.58;;;27.42;;
42912;SDS011;50720;54.324;18.558;2024-02-16T02:04:43;56.83;;;27.90;;
42912;SDS011;50720;54.324;18.558;2024-02-16T02:07:27;57.92;;;26.27;;
42912;SDS011;50720;54.324;18.558;2024-02-16T02:10:10;60.35;;;27.27;;
42912;SDS011;50720;54.324;18.558;2024-02-16T02:12:54;62.70;;;27.95;;
42912;SDS011;50720;54.324;18.558;2024-02-16T02:15:38;61.70;;;28.48;;
42912;SDS011;50720;54.324;18.558;2024-02-16T02:18:21;55.03;;;25.75;;
42912;SDS011;50720;54.324;18.558;2024-02-16T02:21:07;59.15;;;27.77;;
42912;SDS011;50720;54.324;18.558;2024-02-16T02:23:52;59.92;;;26.20;;
42912;SDS011;50720;54.324;18.558;2024-02-16T02:26:35;63.78;;;28.23;;
42912;SDS011;50720;54.324;18.558;2024-02-16T02:29:19;57.33;;;26.48;;
42912;SDS011;50720;54.324;18.558;2024-02-16T02:32:02;58.42;;;26.75;;
42912;SDS011;50720;54.324;18.558;2024-02-16T02:34:46;61.88;;;26.90;;
42912;SDS011;50720;54.324;18.558;2024-02-16T02:37:30;62.80;;;27.88;;
42912;SDS011;50720;54.324;18.558;2024-02-16T02:40:15;59.35;;;29.55;;
42912;SDS011;50720;54.324;18.558;2024-02-16T02:42:59;65.70;;;26.85;;
42912;SDS011;50720;54.324;18.558;2024-02-16T02:45:42;68.07;;;29.50;;
42912;SDS011;50720;54.324;18.558;2024-02-16T02:48:26;61.50;;;27.55;;
42912;SDS011;50720;54.324;18.558;2024-02-16T02:51:10;66.10;;;30.65;;
42912;SDS011;50720;54.324;18.558;2024-02-16T02:53:53;64.97;;;30.38;;
42912;SDS011;50720;54.324;18.558;2024-02-16T02:56:38;71.25;;;30.52;;
42912;SDS011;50720;54.324;18.558;2024-02-16T02:59:22;69.43;;;29.40;;
42912;SDS011;50720;54.324;18.558;2024-02-16T03:02:05;75.63;;;30.15;;
42912;SDS011;50720;54.324;18.558;2024-02-16T03:04:50;68.00;;;29.25;;
42912;SDS011;50720;54.324;18.558;2024-02-16T03:07:33;75.28;;;29.58;;
42912;SDS011;50720;54.324;18.558;2024-02-16T03:10:17;85.82;;;33.95;;
42912;SDS011;50720;54.324;18.558;2024-02-16T03:13:05;77.70;;;33.38;;
42912;SDS011;50720;54.324;18.558;2024-02-16T03:15:50;77.15;;;30.95;;
42912;SDS011;50720;54.324;18.558;2024-02-16T03:18:34;86.90;;;35.88;;
42912;SDS011;50720;54.324;18.558;2024-02-16T03:21:19;71.88;;;31.88;;
42912;SDS011;50720;54.324;18.558;2024-02-16T03:24:03;80.07;;;34.03;;
42912;SDS011;50720;54.324;18.558;2024-02-16T03:26:47;84.82;;;34.63;;
42912;SDS011;50720;54.324;18.558;2024-02-16T03:29:32;85.25;;;34.90;;
42912;SDS011;50720;54.324;18.558;2024-02-16T03:32:16;89.53;;;33.58;;
42912;SDS011;50720;54.324;18.558;2024-02-16T03:34:59;77.57;;;32.65;;
42912;SDS011;50720;54.324;18.558;2024-02-16T03:37:43;82.13;;;32.53;;
42912;SDS011;50720;54.324;18.558;2024-02-16T03:40:27;82.18;;;33.90;;
42912;SDS011;50720;54.324;18.558;2024-02-16T03:43:11;75.45;;;31.83;;
42912;SDS011;50720;54.324;18.558;2024-02-16T03:45:56;83.15;;;35.03;;
42912;SDS011;50720;54.324;18.558;2024-02-16T03:48:39;82.15;;;34.70;;
42912;SDS011;50720;54.324;18.558;2024-02-16T03:51:23;90.32;;;34.40;;
42912;SDS011;50720;54.324;18.558;2024-02-16T03:54:08;81.45;;;33.92;;
42912;SDS011;50720;54.324;18.558;2024-02-16T03:56:52;85.75;;;34.97;;
42912;SDS011;50720;54.324;18.558;2024-02-16T03:59:36;87.97;;;35.03;;
42912;SDS011;50720;54.324;18.558;2024-02-16T04:02:21;81.22;;;33.20;;
42912;SDS011;50720;54.324;18.558;2024-02-16T04:05:04;85.88;;;36.05;;
42912;SDS011;50720;54.324;18.558;2024-02-16T04:07:49;81.63;;;34.22;;
42912;SDS011;50720;54.324;18.558;2024-02-16T04:10:33;81.95;;;34.85;;
42912;SDS011;50720;54.324;18.558;2024-02-16T04:13:17;87.30;;;35.70;;
42912;SDS011;50720;54.324;18.558;2024-02-16T04:16:01;82.38;;;34.30;;
42912;SDS011;50720;54.324;18.558;2024-02-16T04:18:46;80.38;;;35.65;;
42912;SDS011;50720;54.324;18.558;2024-02-16T04:21:29;78.10;;;34.08;;
42912;SDS011;50720;54.324;18.558;2024-02-16T04:24:13;84.80;;;36.78;;
42912;SDS011;50720;54.324;18.558;2024-02-16T04:26:57;76.07;;;34.13;;
42912;SDS011;50720;54.324;18.558;2024-02-16T04:29:40;79.00;;;36.67;;
42912;SDS011;50720;54.324;18.558;2024-02-16T04:32:24;75.45;;;35.40;;
42912;SDS011;50720;54.324;18.558;2024-02-16T04:35:09;78.43;;;39.42;;
42912;SDS011;50720;54.324;18.558;2024-02-16T04:37:54;85.70;;;38.17;;
42912;SDS011;50720;54.324;18.558;2024-02-16T04:40:37;87.63;;;37.38;;
42912;SDS011;50720;54.324;18.558;2024-02-16T04:43:21;73.95;;;35.28;;
42912;SDS011;50720;54.324;18.558;2024-02-16T04:46:04;82.93;;;36.78;;
42912;SDS011;50720;54.324;18.558;2024-02-16T04:48:48;75.55;;;36.05;;
42912;SDS011;50720;54.324;18.558;2024-02-16T04:51:33;74.18;;;35.30;;
42912;SDS011;50720;54.324;18.558;2024-02-16T04:54:16;71.07;;;34.70;;
42912;SDS011;50720;54.324;18.558;2024-02-16T04:57:00;76.68;;;35.03;;
42912;SDS011;50720;54.324;18.558;2024-02-16T04:59:44;84.53;;;36.78;;
42912;SDS011;50720;54.324;18.558;2024-02-16T05:02:27;71.03;;;34.47;;
42912;SDS011;50720;54.324;18.558;2024-02-16T05:05:11;76.30;;;37.00;;
42912;SDS011;50720;54.324;18.558;2024-02-16T05:07:56;72.55;;;36.10;;
42912;SDS011;50720;54.324;18.558;2024-02-16T05:10:39;80.45;;;36.55;;
42912;SDS011;50720;54.324;18.558;2024-02-16T05:13:23;78.53;;;36.10;;
42912;SDS011;50720;54.324;18.558;2024-02-16T05:16:08;72.78;;;33.97;;
42912;SDS011;50720;54.324;18.558;2024-02-16T05:18:53;78.28;;;35.58;;
42912;SDS011;50720;54.324;18.558;2024-02-16T05:21:37;73.03;;;34.17;;
42912;SDS011;50720;54.324;18.558;2024-02-16T05:24:23;73.10;;;34.45;;
42912;SDS011;50720;54.324;18.558;2024-02-16T05:27:06;65.25;;;32.83;;
42912;SDS011;50720;54.324;18.558;2024-02-16T05:29:49;79.97;;;36.72;;
42912;SDS011;50720;54.324;18.558;2024-02-16T05:32:33;64.20;;;31.90;;
42912;SDS011;50720;54.324;18.558;2024-02-16T05:35:17;69.32;;;34.15;;
42912;SDS011;50720;54.324;18.558;2024-02-16T05:38:01;67.10;;;32.58;;
42912;SDS011;50720;54.324;18.558;2024-02-16T05:40:50;68.47;;;31.98;;
42912;SDS011;50720;54.324;18.558;2024-02-16T05:43:38;78.32;;;34.67;;
42912;SDS011;50720;54.324;18.558;2024-02-16T05:46:22;72.63;;;36.80;;
42912;SDS011;50720;54.324;18.558;2024-02-16T05:49:05;73.75;;;36.10;;
42912;SDS011;50720;54.324;18.558;2024-02-16T05:51:49;77.45;;;37.60;;
42912;SDS011;50720;54.324;18.558;2024-02-16T05:54:59;71.82;;;37.30;;
42912;SDS011;50720;54.324;18.558;2024-02-16T05:57:44;75.72;;;37.75;;
42912;SDS011;50720;54.324;18.558;2024-02-16T06:00:27;77.03;;;36.75;;
42912;SDS011;50720;54.324;18.558;2024-02-16T06:03:11;80.32;;;39.53;;
42912;SDS011;50720;54.324;18.558;2024-02-16T06:05:55;75.50;;;38.33;;
42912;SDS011;50720;54.324;18.558;2024-02-16T06:08:39;74.82;;;39.40;;
42912;SDS011;50720;54.324;18.558;2024-02-16T06:11:22;81.70;;;38.65;;
42912;SDS011;50720;54.324;18.558;2024-02-16T06:14:07;73.53;;;37.88;;
42912;SDS011;50720;54.324;18.558;2024-02-16T06:16:51;76.65;;;40.42;;
42912;SDS011;50720;54.324;18.558;2024-02-16T06:19:34;78.18;;;42.85;;
42912;SDS011;50720;54.324;18.558;2024-02-16T06:22:18;84.72;;;40.30;;
42912;SDS011;50720;54.324;18.558;2024-02-16T06:25:02;73.97;;;38.35;;
42912;SDS011;50720;54.324;18.558;2024-02-16T06:27:46;77.22;;;39.95;;
42912;SDS011;50720;54.324;18.558;2024-02-16T06:30:31;75.40;;;38.65;;
42912;SDS011;50720;54.324;18.558;2024-02-16T06:33:14;71.10;;;38.28;;
42912;SDS011;50720;54.324;18.558;2024-02-16T06:35:58;71.72;;;37.75;;
42912;SDS011;50720;54.324;18.558;2024-02-16T06:38:42;72.72;;;37.45;;
42912;SDS011;50720;54.324;18.558;2024-02-16T06:41:25;70.50;;;38.65;;
42912;SDS011;50720;54.324;18.558;2024-02-16T06:44:09;75.18;;;40.55;;
42912;SDS011;50720;54.324;18.558;2024-02-16T06:46:54;76.32;;;40.55;;
42912;SDS011;50720;54.324;18.558;2024-02-16T06:49:38;75.95;;;40.05;;
42912;SDS011;50720;54.324;18.558;2024-02-16T06:52:21;76.47;;;39.70;;
42912;SDS011;50720;54.324;18.558;2024-02-16T06:55:05;75.70;;;41.15;;
42912;SDS011;50720;54.324;18.558;2024-02-16T06:57:49;77.90;;;43.38;;
42912;SDS011;50720;54.324;18.558;2024-02-16T07:00:33;71.82;;;39.42;;
42912;SDS011;50720;54.324;18.558;2024-02-16T07:03:18;77.38;;;40.25;;
42912;SDS011;50720;54.324;18.558;2024-02-16T07:06:02;77.53;;;41.75;;
42912;SDS011;50720;54.324;18.558;2024-02-16T07:08:46;78.80;;;40.65;;
42912;SDS011;50720;54.324;18.558;2024-02-16T07:11:29;74.82;;;39.88;;
42912;SDS011;50720;54.324;18.558;2024-02-16T07:14:13;73.45;;;39.55;;
42912;SDS011;50720;54.324;18.558;2024-02-16T07:16:56;71.65;;;39.03;;
42912;SDS011;50720;54.324;18.558;2024-02-16T07:19:41;73.25;;;39.83;;
42912;SDS011;50720;54.324;18.558;2024-02-16T07:22:25;72.20;;;38.17;;
42912;SDS011;50720;54.324;18.558;2024-02-16T07:25:08;71.57;;;39.97;;
42912;SDS011;50720;54.324;18.558;2024-02-16T07:27:53;71.05;;;38.80;;
42912;SDS011;50720;54.324;18.558;2024-02-16T07:30:40;66.15;;;37.35;;
42912;SDS011;50720;54.324;18.558;2024-02-16T07:33:24;66.32;;;36.80;;
42912;SDS011;50720;54.324;18.558;2024-02-16T07:36:12;60.50;;;33.95;;
42912;SDS011;50720;54.324;18.558;2024-02-16T07:38:56;56.63;;;32.35;;
42912;SDS011;50720;54.324;18.558;2024-02-16T07:41:40;50.47;;;33.00;;
42912;SDS011;50720;54.324;18.558;2024-02-16T07:44:23;53.70;;;31.27;;
42912;SDS011;50720;54.324;18.558;2024-02-16T07:47:07;51.65;;;31.38;;
42912;SDS011;50720;54.324;18.558;2024-02-16T07:49:50;58.22;;;34.70;;
42912;SDS011;50720;54.324;18.558;2024-02-16T07:52:36;69.95;;;40.97;;
42912;SDS011;50720;54.324;18.558;2024-02-16T07:55:21;64.13;;;37.15;;
42912;SDS011;50720;54.324;18.558;2024-02-16T07:58:06;54.55;;;32.15;;
42912;SDS011;50720;54.324;18.558;2024-02-16T08:00:50;56.80;;;33.63;;
42912;SDS011;50720;54.324;18.558;2024-02-16T08:03:36;61.08;;;34.85;;
42912;SDS011;50720;54.324;18.558;2024-02-16T08:06:24;56.97;;;33.53;;
42912;SDS011;50720;54.324;18.558;2024-02-16T08:09:10;56.05;;;32.20;;
42912;SDS011;50720;54.324;18.558;2024-02-16T08:11:53;56.80;;;34.28;;
42912;SDS011;50720;54.324;18.558;2024-02-16T08:14:37;50.50;;;29.85;;
42912;SDS011;50720;54.324;18.558;2024-02-16T08:17:21;55.13;;;32.40;;
42912;SDS011;50720;54.324;18.558;2024-02-16T08:20:05;54.90;;;33.10;;
42912;SDS011;50720;54.324;18.558;2024-02-16T08:22:53;50.90;;;31.10;;
42912;SDS011;50720;54.324;18.558;2024-02-16T08:25:38;46.08;;;31.20;;
42912;SDS011;50720;54.324;18.558;2024-02-16T08:28:22;48.25;;;29.85;;
42912;SDS011;50720;54.324;18.558;2024-02-16T08:31:05;54.47;;;33.13;;
42912;SDS011;50720;54.324;18.558;2024-02-16T08:33:49;43.88;;;29.38;;
42912;SDS011;50720;54.324;18.558;2024-02-16T08:36:33;47.78;;;29.60;;
42912;SDS011;50720;54.324;18.558;2024-02-16T08:39:17;44.05;;;28.85;;
42912;SDS011;50720;54.324;18.558;2024-02-16T08:42:05;48.25;;;29.42;;
42912;SDS011;50720;54.324;18.558;2024-02-16T08:44:50;42.83;;;28.83;;
42912;SDS011;50720;54.324;18.558;2024-02-16T08:47:33;45.95;;;29.15;;
42912;SDS011;50720;54.324;18.558;2024-02-16T08:50:17;49.70;;;29.75;;
42912;SDS011;50720;54.324;18.558;2024-02-16T08:53:01;47.45;;;27.52;;
42912;SDS011;50720;54.324;18.558;2024-02-16T08:55:44;49.10;;;29.33;;
42912;SDS011;50720;54.324;18.558;2024-02-16T08:58:29;46.42;;;29.40;;
42912;SDS011;50720;54.324;18.558;2024-02-16T09:01:13;46.05;;;28.60;;
42912;SDS011;50720;54.324;18.558;2024-02-16T09:03:57;42.53;;;28.92;;
42912;SDS011;50720;54.324;18.558;2024-02-16T09:06:43;44.08;;;27.65;;
42912;SDS011;50720;54.324;18.558;2024-02-16T09:09:26;43.45;;;28.65;;
42912;SDS011;50720;54.324;18.558;2024-02-16T09:12:10;42.40;;;28.17;;
42912;SDS011;50720;54.324;18.558;2024-02-16T09:14:55;45.03;;;27.90;;
42912;SDS011;50720;54.324;18.558;2024-02-16T09:17:39;41.30;;;26.65;;
42912;SDS011;50720;54.324;18.558;2024-02-16T09:20:23;39.67;;;26.55;;
42912;SDS011;50720;54.324;18.558;2024-02-16T09:23:08;38.72;;;24.73;;
42912;SDS011;50720;54.324;18.558;2024-02-16T09:25:52;39.72;;;25.42;;
42912;SDS011;50720;54.324;18.558;2024-02-16T09:28:38;43.60;;;25.80;;
42912;SDS011;50720;54.324;18.558;2024-02-16T09:31:24;42.33;;;25.70;;
42912;SDS011;50720;54.324;18.558;2024-02-16T09:34:08;34.67;;;22.92;;
42912;SDS011;50720;54.324;18.558;2024-02-16T09:36:51;35.33;;;24.13;;
42912;SDS011;50720;54.324;18.558;2024-02-16T09:39:35;37.45;;;24.20;;
42912;SDS011;50720;54.324;18.558;2024-02-16T09:42:18;34.72;;;23.20;;
42912;SDS011;50720;54.324;18.558;2024-02-16T09:45:02;41.03;;;24.02;;
42912;SDS011;50720;54.324;18.558;2024-02-16T09:47:49;35.78;;;24.10;;
42912;SDS011;50720;54.324;18.558;2024-02-16T09:50:45;38.05;;;24.92;;
42912;SDS011;50720;54.324;18.558;2024-02-16T09:53:29;35.28;;;23.63;;
42912;SDS011;50720;54.324;18.558;2024-02-16T09:56:12;40.60;;;25.77;;
42912;SDS011;50720;54.324;18.558;2024-02-16T09:58:56;40.25;;;24.52;;
42912;SDS011;50720;54.324;18.558;2024-02-16T10:01:39;41.25;;;26.42;;
42912;SDS011;50720;54.324;18.558;2024-02-16T10:04:24;39.13;;;24.90;;
42912;SDS011;50720;54.324;18.558;2024-02-16T10:07:08;40.17;;;23.33;;
42912;SDS011;50720;54.324;18.558;2024-02-16T10:09:54;37.08;;;24.52;;
42912;SDS011;50720;54.324;18.558;2024-02-16T10:12:37;41.90;;;25.13;;
42912;SDS011;50720;54.324;18.558;2024-02-16T10:15:21;39.85;;;24.75;;
42912;SDS011;50720;54.324;18.558;2024-02-16T10:18:06;37.95;;;24.15;;
42912;SDS011;50720;54.324;18.558;2024-02-16T10:20:52;32.92;;;22.35;;
42912;SDS011;50720;54.324;18.558;2024-02-16T10:23:35;37.67;;;23.58;;
42912;SDS011;50720;54.324;18.558;2024-02-16T10:26:21;36.65;;;23.08;;
42912;SDS011;50720;54.324;18.558;2024-02-16T10:29:05;32.85;;;21.98;;
42912;SDS011;50720;54.324;18.558;2024-02-16T10:31:50;34.97;;;21.63;;
42912;SDS011;50720;54.324;18.558;2024-02-16T10:34:34;39.13;;;23.70;;
42912;SDS011;50720;54.324;18.558;2024-02-16T10:37:22;34.10;;;21.27;;
42912;SDS011;50720;54.324;18.558;2024-02-16T10:40:07;35.53;;;21.10;;
42912;SDS011;50720;54.324;18.558;2024-02-16T10:42:55;32.75;;;20.65;;
42912;SDS011;50720;54.324;18.558;2024-02-16T10:45:39;30.05;;;20.85;;
42912;SDS011;50720;54.324;18.558;2024-02-16T10:48:22;30.77;;;19.77;;
42912;SDS011;50720;54.324;18.558;2024-02-16T10:51:06;33.65;;;19.10;;
42912;SDS011;50720;54.324;18.558;2024-02-16T10:53:53;32.47;;;17.60;;
42912;SDS011;50720;54.324;18.558;2024-02-16T10:56:39;27.65;;;18.00;;
42912;SDS011;50720;54.324;18.558;2024-02-16T10:59:23;29.67;;;16.52;;
42912;SDS011;50720;54.324;18.558;2024-02-16T11:02:09;24.83;;;16.30;;
42912;SDS011;50720;54.324;18.558;2024-02-16T11:04:53;24.27;;;15.70;;
42912;SDS011;50720;54.324;18.558;2024-02-16T11:07:38;23.27;;;14.10;;
42912;SDS011;50720;54.324;18.558;2024-02-16T11:10:23;19.83;;;13.85;;
42912;SDS011;50720;54.324;18.558;2024-02-16T11:13:06;21.50;;;13.18;;
42912;SDS011;50720;54.324;18.558;2024-02-16T11:15:56;22.13;;;13.60;;
42912;SDS011;50720;54.324;18.558;2024-02-16T11:18:41;28.30;;;15.05;;
42912;SDS011;50720;54.324;18.558;2024-02-16T11:21:28;21.25;;;13.65;;
42912;SDS011;50720;54.324;18.558;2024-02-16T11:24:13;17.58;;;11.32;;
42912;SDS011;50720;54.324;18.558;2024-02-16T11:26:58;16.75;;;11.30;;
42912;SDS011;50720;54.324;18.558;2024-02-16T11:29:44;17.38;;;12.07;;
42912;SDS011;50720;54.324;18.558;2024-02-16T11:32:28;20.08;;;12.25;;
42912;SDS011;50720;54.324;18.558;2024-02-16T11:35:15;19.27;;;11.68;;
42912;SDS011;50720;54.324;18.558;2024-02-16T11:37:59;17.20;;;10.75;;
42912;SDS011;50720;54.324;18.558;2024-02-16T11:40:52;16.48;;;11.43;;
42912;SDS011;50720;54.324;18.558;2024-02-16T11:43:37;18.17;;;11.05;;
42912;SDS011;50720;54.324;18.558;2024-02-16T11:46:21;18.63;;;11.50;;
42912;SDS011;50720;54.324;18.558;2024-02-16T11:49:06;16.55;;;10.70;;
42912;SDS011;50720;54.324;18.558;2024-02-16T11:51:51;18.52;;;11.95;;
42912;SDS011;50720;54.324;18.558;2024-02-16T11:54:35;12.98;;;9.73;;
42912;SDS011;50720;54.324;18.558;2024-02-16T11:57:19;18.92;;;11.23;;
42912;SDS011;50720;54.324;18.558;2024-02-16T12:00:05;15.95;;;10.73;;
42912;SDS011;50720;54.324;18.558;2024-02-16T12:02:58;20.15;;;12.25;;
42912;SDS011;50720;54.324;18.558;2024-02-16T12:05:49;15.70;;;10.48;;
42912;SDS011;50720;54.324;18.558;2024-02-16T12:08:33;15.73;;;11.05;;
42912;SDS011;50720;54.324;18.558;2024-02-16T12:11:18;23.55;;;10.48;;
42912;SDS011;50720;54.324;18.558;2024-02-16T12:14:01;15.82;;;10.75;;
42912;SDS011;50720;54.324;18.558;2024-02-16T12:16:50;14.43;;;10.13;;
42912;SDS011;50720;54.324;18.558;2024-02-16T12:19:34;15.75;;;10.20;;
42912;SDS011;50720;54.324;18.558;2024-02-16T12:22:18;15.45;;;10.43;;
42912;SDS011;50720;54.324;18.558;2024-02-16T12:25:02;14.07;;;10.25;;
42912;SDS011;50720;54.324;18.558;2024-02-16T12:27:46;13.40;;;9.13;;
42912;SDS011;50720;54.324;18.558;2024-02-16T12:30:30;14.30;;;10.38;;
42912;SDS011;50720;54.324;18.558;2024-02-16T12:33:15;15.32;;;10.38;;
42912;SDS011;50720;54.324;18.558;2024-02-16T12:35:59;12.68;;;9.95;;
42912;SDS011;50720;54.324;18.558;2024-02-16T12:38:42;17.05;;;10.70;;
42912;SDS011;50720;54.324;18.558;2024-02-16T12:41:26;15.18;;;10.32;;
42912;SDS011;50720;54.324;18.558;2024-02-16T12:44:10;18.45;;;10.90;;
42912;SDS011;50720;54.324;18.558;2024-02-16T12:46:53;16.52;;;10.13;;
42912;SDS011;50720;54.324;18.558;2024-02-16T12:49:39;15.77;;;10.32;;
42912;SDS011;50720;54.324;18.558;2024-02-16T12:52:23;12.50;;;9.30;;
42912;SDS011;50720;54.324;18.558;2024-02-16T12:55:06;15.82;;;9.35;;
42912;SDS011;50720;54.324;18.558;2024-02-16T12:57:51;18.77;;;10.23;;
42912;SDS011;50720;54.324;18.558;2024-02-16T13:00:35;14.68;;;10.40;;
42912;SDS011;50720;54.324;18.558;2024-02-16T13:03:19;15.77;;;9.98;;
42912;SDS011;50720;54.324;18.558;2024-02-16T13:06:04;17.42;;;9.25;;
42912;SDS011;50720;54.324;18.558;2024-02-16T13:08:48;13.38;;;9.57;;
42912;SDS011;50720;54.324;18.558;2024-02-16T13:11:32;12.45;;;8.82;;
42912;SDS011;50720;54.324;18.558;2024-02-16T13:14:16;15.93;;;9.88;;
42912;SDS011;50720;54.324;18.558;2024-02-16T13:16:59;13.65;;;9.30;;
42912;SDS011;50720;54.324;18.558;2024-02-16T13:19:42;16.17;;;9.20;;
42912;SDS011;50720;54.324;18.558;2024-02-16T13:22:27;16.95;;;10.70;;
42912;SDS011;50720;54.324;18.558;2024-02-16T13:25:11;20.17;;;9.55;;
42912;SDS011;50720;54.324;18.558;2024-02-16T13:27:54;16.15;;;9.18;;
42912;SDS011;50720;54.324;18.558;2024-02-16T13:30:38;18.77;;;10.25;;
42912;SDS011;50720;54.324;18.558;2024-02-16T13:33:21;14.02;;;9.98;;
42912;SDS011;50720;54.324;18.558;2024-02-16T13:36:06;15.32;;;10.00;;
42912;SDS011;50720;54.324;18.558;2024-02-16T13:38:52;12.95;;;8.45;;
42912;SDS011;50720;54.324;18.558;2024-02-16T13:41:36;14.35;;;8.82;;
42912;SDS011;50720;54.324;18.558;2024-02-16T13:44:19;15.82;;;9.57;;
42912;SDS011;50720;54.324;18.558;2024-02-16T13:47:03;14.27;;;8.85;;
42912;SDS011;50720;54.324;18.558;2024-02-16T13:49:47;19.80;;;10.25;;
42912;SDS011;50720;54.324;18.558;2024-02-16T13:52:31;12.65;;;8.75;;
42912;SDS011;50720;54.324;18.558;2024-02-16T13:55:17;12.88;;;8.75;;
42912;SDS011;50720;54.324;18.558;2024-02-16T13:58:00;13.27;;;10.07;;
42912;SDS011;50720;54.324;18.558;2024-02-16T14:00:44;20.17;;;9.77;;
42912;SDS011;50720;54.324;18.558;2024-02-16T14:03:27;22.70;;;10.82;;
42912;SDS011;50720;54.324;18.558;2024-02-16T14:06:11;19.50;;;9.60;;
42912;SDS011;50720;54.324;18.558;2024-02-16T14:08:54;20.60;;;12.15;;
42912;SDS011;50720;54.324;18.558;2024-02-16T14:11:40;18.58;;;10.38;;
42912;SDS011;50720;54.324;18.558;2024-02-16T14:14:24;22.30;;;11.52;;
42912;SDS011;50720;54.324;18.558;2024-02-16T14:17:18;17.83;;;11.20;;
42912;SDS011;50720;54.324;18.558;2024-02-16T14:20:03;21.60;;;11.48;;
42912;SDS011;50720;54.324;18.558;2024-02-16T14:22:48;18.88;;;11.27;;
42912;SDS011;50720;54.324;18.558;2024-02-16T14:25:32;17.10;;;11.20;;
42912;SDS011;50720;54.324;18.558;2024-02-16T14:28:17;19.67;;;12.00;;
42912;SDS011;50720;54.324;18.558;2024-02-16T14:31:01;19.60;;;11.73;;
42912;SDS011;50720;54.324;18.558;2024-02-16T14:33:45;23.30;;;13.93;;
42912;SDS011;50720;54.324;18.558;2024-02-16T14:36:29;25.75;;;11.57;;
42912;SDS011;50720;54.324;18.558;2024-02-16T14:39:13;24.17;;;12.43;;
42912;SDS011;50720;54.324;18.558;2024-02-16T14:41:58;19.75;;;12.27;;
42912;SDS011;50720;54.324;18.558;2024-02-16T14:44:43;20.58;;;11.65;;
42912;SDS011;50720;54.324;18.558;2024-02-16T14:47:26;23.25;;;11.20;;
42912;SDS011;50720;54.324;18.558;2024-02-16T14:50:09;16.85;;;11.43;;
42912;SDS011;50720;54.324;18.558;2024-02-16T14:52:54;15.65;;;10.75;;
42912;SDS011;50720;54.324;18.558;2024-02-16T14:55:38;19.58;;;11.80;;
42912;SDS011;50720;54.324;18.558;2024-02-16T14:58:22;17.15;;;11.75;;
42912;SDS011;50720;54.324;18.558;2024-02-16T15:01:06;25.30;;;12.02;;
42912;SDS011;50720;54.324;18.558;2024-02-16T15:03:51;16.40;;;10.57;;
42912;SDS011;50720;54.324;18.558;2024-02-16T15:06:35;19.08;;;11.02;;
42912;SDS011;50720;54.324;18.558;2024-02-16T15:09:18;16.65;;;11.73;;
42912;SDS011;50720;54.324;18.558;2024-02-16T15:12:02;19.92;;;11.02;;
42912;SDS011;50720;54.324;18.558;2024-02-16T15:14:46;18.52;;;12.48;;
42912;SDS011;50720;54.324;18.558;2024-02-16T15:17:31;31.17;;;19.00;;
42912;SDS011;50720;54.324;18.558;2024-02-16T15:20:15;18.48;;;11.55;;
42912;SDS011;50720;54.324;18.558;2024-02-16T15:22:58;22.63;;;12.55;;
42912;SDS011;50720;54.324;18.558;2024-02-16T15:25:42;20.70;;;11.63;;
42912;SDS011;50720;54.324;18.558;2024-02-16T15:28:25;18.30;;;11.32;;
42912;SDS011;50720;54.324;18.558;2024-02-16T15:31:09;22.75;;;13.68;;
42912;SDS011;50720;54.324;18.558;2024-02-16T15:33:53;15.45;;;10.30;;
42912;SDS011;50720;54.324;18.558;2024-02-16T15:36:37;17.08;;;10.55;;
42912;SDS011;50720;54.324;18.558;2024-02-16T15:39:21;18.95;;;12.57;;
42912;SDS011;50720;54.324;18.558;2024-02-16T15:42:05;18.20;;;12.02;;
42912;SDS011;50720;54.324;18.558;2024-02-16T15:44:49;20.70;;;12.80;;
42912;SDS011;50720;54.324;18.558;2024-02-16T15:47:35;22.17;;;13.57;;